Time;durP1;ratioP1;P1;durP2;ratioP2;P2;SDS_P1;SDS_P2;PMS_P1;PMS_P2;Temp;Humidity;BMP_temperature;BMP_pressure;BME280_temperature;BME280_humidity;BME280_pressure;Samples;Min_cycle;Max_cycle;Signal;HPM_P1;HPM_P2
2022/09/09 04:40:19;;;;;;;8.83;7.12;;;;;;;8.31;90.64;100631.19;1715005;82;21073;-49
2022/09/09 04:42:47;;;;;;;12.45;8.38;;;;;;;8.49;90.50;100636.69;1764179;79;21395;-39
2022/09/09 04:45:15;;;;;;;12.33;7.40;;;;;;;8.60;90.62;100640.76;1766759;79;21520;-50
2022/09/09 04:47:42;;;;;;;15.55;8.25;;;;;;;8.71;90.98;100635.25;1769848;79;21050;-50
2022/09/09 04:50:09;;;;;;;16.50;6.90;;;;;;;8.85;91.08;100642.81;1757958;80;21397;-49
2022/09/09 04:52:35;;;;;;;14.65;7.83;;;;;;;9.01;91.15;100654.33;1769718;79;20989;-50
2022/09/09 04:55:03;;;;;;;12.35;7.12;;;;;;;9.18;91.13;100644.08;1763221;79;21004;-49
2022/09/09 04:57:32;;;;;;;16.60;7.45;;;;;;;9.39;91.01;100648.64;1752774;80;21067;-40
2022/09/09 04:59:59;;;;;;;12.90;6.83;;;;;;;9.58;90.62;100650.59;1752300;80;21064;-49
2022/09/09 05:02:27;;;;;;;11.18;6.50;;;;;;;9.76;90.49;100655.12;1735889;80;21067;-52
2022/09/09 05:04:55;;;;;;;9.93;6.45;;;;;;;9.94;90.35;100665.72;1749088;80;21033;-39
2022/09/09 05:07:22;;;;;;;10.13;7.20;;;;;;;10.10;90.21;100661.06;1752453;80;21013;-39
2022/09/09 05:09:49;;;;;;;14.03;7.42;;;;;;;10.25;90.24;100665.98;1750543;80;21001;-39
2022/09/09 05:12:16;;;;;;;16.82;6.60;;;;;;;10.42;90.30;100669.59;1748892;80;20993;-49
2022/09/09 05:14:46;;;;;;;9.85;6.28;;;;;;;10.59;90.17;100667.08;1750836;80;20971;-50
2022/09/09 05:17:13;;;;;;;10.38;5.72;;;;;;;10.77;90.01;100668.92;1748562;80;21373;-40
2022/09/09 05:19:40;;;;;;;11.00;6.50;;;;;;;10.93;89.66;100661.59;1759190;80;21052;-50
2022/09/09 05:22:07;;;;;;;11.20;7.10;;;;;;;11.08;89.37;100658.17;1742951;80;21104;-51
2022/09/09 05:24:36;;;;;;;14.60;8.03;;;;;;;11.24;89.20;100657.77;1755558;80;21408;-50
2022/09/09 05:27:05;;;;;;;16.15;7.62;;;;;;;11.42;88.94;100657.41;1748593;80;21422;-49
2022/09/09 05:29:36;;;;;;;14.20;7.28;;;;;;;11.61;88.45;100652.20;1753456;79;20941;-50
2022/09/09 05:32:04;;;;;;;10.18;6.55;;;;;;;11.81;87.92;100649.58;1742791;79;21441;-51
2022/09/09 05:34:32;;;;;;;8.30;6.53;;;;;;;11.99;87.01;100651.79;1750202;80;21024;-51
2022/09/09 05:37:04;;;;;;;11.08;6.70;;;;;;;12.14;86.08;100652.67;1750516;80;21020;-50
2022/09/09 05:39:32;;;;;;;16.82;7.42;;;;;;;12.27;85.77;100647.84;1756138;80;21580;-49
2022/09/09 05:41:59;;;;;;;11.57;6.55;;;;;;;12.44;85.50;100646.06;1772620;79;21885;-50
2022/09/09 05:44:27;;;;;;;12.47;6.90;;;;;;;12.61;85.05;100650.41;1778363;79;21374;-45
2022/09/09 05:46:54;;;;;;;10.85;7.08;;;;;;;12.79;84.79;100651.66;1747648;80;21960;-49
2022/09/09 05:49:22;;;;;;;20.77;8.15;;;;;;;12.95;84.02;100644.16;1780988;79;21596;-50
2022/09/09 05:51:50;;;;;;;11.75;7.05;;;;;;;13.09;83.43;100643.22;1774195;79;21017;-40
2022/09/09 05:54:17;;;;;;;11.95;7.58;;;;;;;13.23;82.84;100641.00;1779359;79;21137;-41
2022/09/09 05:56:46;;;;;;;10.98;6.65;;;;;;;13.41;82.61;100635.21;1776414;79;21037;-42
2022/09/09 05:59:14;;;;;;;10.68;6.58;;;;;;;13.61;81.84;100643.82;1759913;79;21584;-40
2022/09/09 06:01:44;;;;;;;12.60;6.50;;;;;;;13.79;81.04;100643.69;1775783;79;21040;-50
2022/09/09 06:04:15;;;;;;;19.02;5.90;;;;;;;13.98;80.50;100645.75;1772552;79;20970;-49
2022/09/09 06:06:43;;;;;;;9.53;6.15;;;;;;;14.18;79.76;100649.50;1774065;79;21502;-40
2022/09/09 06:09:15;;;;;;;11.95;5.67;;;;;;;14.32;78.91;100647.63;1789255;79;21028;-41
2022/09/09 06:11:45;;;;;;;16.00;6.10;;;;;;;14.50;78.22;100641.79;1781863;79;21077;-41
2022/09/09 06:14:14;;;;;;;13.35;6.28;;;;;;;14.69;77.65;100634.11;1746933;79;20953;-50
2022/09/09 06:16:43;;;;;;;13.15;5.85;;;;;;;14.87;77.10;100622.03;1780337;79;21144;-40
2022/09/09 06:19:20;;;;;;;8.30;5.85;;;;;;;15.06;76.21;100626.61;1784973;78;21640;-48
2022/09/09 06:21:50;;;;;;;11.08;6.25;;;;;;;15.26;75.22;100632.95;1775218;79;21048;-50
2022/09/09 06:24:19;;;;;;;14.93;6.15;;;;;;;15.40;74.66;100628.34;1777699;79;21441;-41
2022/09/09 06:26:46;;;;;;;11.53;5.35;;;;;;;15.53;74.04;100629.02;1771117;79;21025;-42
2022/09/09 06:29:15;;;;;;;12.30;5.65;;;;;;;15.70;73.09;100628.34;1773740;79;20957;-41
2022/09/09 06:31:45;;;;;;;7.97;5.30;;;;;;;15.88;72.35;100629.81;1778009;79;21308;-51
2022/09/09 06:34:13;;;;;;;10.40;5.60;;;;;;;16.05;71.12;100642.73;1780772;79;21445;-41
2022/09/09 06:36:42;;;;;;;9.48;5.50;;;;;;;16.21;70.48;100641.57;1769160;79;21056;-51
2022/09/09 06:39:11;;;;;;;11.30;6.12;;;;;;;16.34;69.42;100645.31;1743830;79;21045;-51
2022/09/09 06:41:38;;;;;;;11.35;5.80;;;;;;;16.44;68.78;100644.25;1759008;79;21032;-50
2022/09/09 06:44:06;;;;;;;8.73;5.37;;;;;;;16.57;68.15;100649.72;1752489;80;21107;-42
2022/09/09 06:46:35;;;;;;;7.47;5.22;;;;;;;16.71;67.58;100650.83;1748477;80;21028;-51
2022/09/09 06:49:02;;;;;;;12.88;5.60;;;;;;;16.89;66.99;100649.12;1756575;80;20985;-51
2022/09/09 06:51:33;;;;;;;7.55;5.37;;;;;;;17.08;66.28;100647.42;1753417;80;21080;-51
2022/09/09 06:54:02;;;;;;;11.68;6.17;;;;;;;17.26;64.81;100654.95;1738647;80;21591;-51
2022/09/09 06:56:37;;;;;;;7.80;5.95;;;;;;;17.41;64.47;100653.30;1744185;80;21080;-41
2022/09/09 06:59:08;;;;;;;14.20;5.83;;;;;;;17.55;63.48;100644.59;1757223;80;21689;-51
2022/09/09 07:01:43;;;;;;;8.58;4.90;;;;;;;17.67;62.02;100647.86;1756231;80;21480;-41
2022/09/09 07:04:13;;;;;;;14.33;5.28;;;;;;;17.80;61.37;100654.66;1737439;80;20929;-50
2022/09/09 07:06:43;;;;;;;7.50;5.25;;;;;;;17.85;60.65;100648.77;1738596;80;20992;-50
2022/09/09 07:09:14;;;;;;;11.63;5.53;;;;;;;17.89;60.55;100647.80;1763319;80;21472;-50
2022/09/09 07:11:48;;;;;;;10.98;5.80;;;;;;;17.94;60.68;100651.20;1759953;80;21013;-41
2022/09/09 07:14:16;;;;;;;9.45;5.37;;;;;;;18.01;59.80;100650.14;1762001;80;21005;-51
2022/09/09 07:16:45;;;;;;;14.38;5.75;;;;;;;18.08;59.13;100655.69;1753209;80;21017;-51
2022/09/09 07:19:14;;;;;;;9.55;5.20;;;;;;;18.11;58.80;100660.05;1738938;80;20996;-51
2022/09/09 07:21:42;;;;;;;13.95;5.85;;;;;;;18.13;58.77;100656.03;1754021;80;21040;-42
2022/09/09 07:24:12;;;;;;;12.53;6.03;;;;;;;18.21;58.67;100652.75;1756535;79;22133;-50
2022/09/09 07:26:46;;;;;;;10.82;4.97;;;;;;;18.27;58.26;100645.97;1676861;83;21146;-50
2022/09/09 07:29:13;;;;;;;9.15;5.65;;;;;;;18.32;58.12;100644.95;1728741;81;21681;-51
2022/09/09 07:31:42;;;;;;;13.10;6.05;;;;;;;18.39;57.63;100639.03;1757483;80;21570;-50
2022/09/09 07:34:12;;;;;;;6.78;4.60;;;;;;;18.42;57.70;100638.92;1757320;80;21602;-41
2022/09/09 07:36:41;;;;;;;14.18;5.28;;;;;;;18.45;57.55;100644.61;1721024;80;21507;-41
2022/09/09 07:39:14;;;;;;;8.03;5.83;;;;;;;18.52;57.40;100653.67;1741869;80;21433;-50
2022/09/09 07:41:47;;;;;;;9.75;5.03;;;;;;;18.58;57.19;100653.50;1738584;80;21024;-40
2022/09/09 07:44:21;;;;;;;6.45;4.80;;;;;;;18.69;56.96;100653.70;1758598;80;21417;-50
2022/09/09 07:46:51;;;;;;;7.22;5.72;;;;;;;18.76;56.51;100651.29;1751048;79;21543;-40
2022/09/09 07:49:22;;;;;;;7.33;4.95;;;;;;;18.80;56.08;100647.19;1755841;80;21496;-49
2022/09/09 07:51:50;;;;;;;10.55;5.08;;;;;;;18.86;56.01;100650.13;1754330;79;21047;-51
2022/09/09 07:54:23;;;;;;;9.45;4.87;;;;;;;18.94;56.06;100645.45;1698958;80;21474;-52
2022/09/09 07:56:51;;;;;;;9.35;5.20;;;;;;;19.07;54.93;100648.61;1732343;80;21582;-50
2022/09/09 07:59:19;;;;;;;8.20;5.00;;;;;;;19.22;54.63;100644.66;1751183;80;21964;-41
2022/09/09 08:01:53;;;;;;;11.15;5.00;;;;;;;19.33;53.91;100641.22;1749678;80;21000;-42
2022/09/09 08:04:21;;;;;;;7.97;4.40;;;;;;;19.38;53.55;100636.19;1750744;80;21445;-51
2022/09/09 08:06:55;;;;;;;8.13;4.90;;;;;;;19.48;53.20;100639.86;1737377;80;21048;-41
2022/09/09 08:09:28;;;;;;;7.40;4.85;;;;;;;19.59;52.70;100634.66;1755471;80;21075;-41
2022/09/09 08:11:58;;;;;;;14.50;5.20;;;;;;;19.73;52.06;100636.03;1724166;80;20980;-42
2022/09/09 08:14:26;;;;;;;8.35;5.28;;;;;;;19.83;51.71;100636.11;1744057;80;20992;-43
2022/09/09 08:16:54;;;;;;;8.68;5.80;;;;;;;19.95;51.61;100642.84;1744359;80;21528;-51
2022/09/09 08:19:23;;;;;;;6.97;4.78;;;;;;;20.02;51.43;100632.41;1750220;80;20960;-51
2022/09/09 08:21:49;;;;;;;8.03;5.03;;;;;;;20.15;50.86;100629.73;1748282;80;21047;-51
2022/09/09 08:24:19;;;;;;;10.15;5.20;;;;;;;20.25;50.08;100623.66;1747319;80;21495;-41
2022/09/09 08:26:51;;;;;;;16.87;4.97;;;;;;;20.26;49.75;100622.27;1749523;80;21451;-41
2022/09/09 08:29:19;;;;;;;8.10;5.28;;;;;;;20.26;49.85;100617.42;1745127;80;21409;-41
2022/09/09 08:31:54;;;;;;;16.82;6.53;;;;;;;20.29;49.77;100618.62;1748581;80;21004;-43
2022/09/09 08:34:21;;;;;;;9.73;5.37;;;;;;;20.31;49.54;100618.13;1745979;79;21024;-41
2022/09/09 08:36:49;;;;;;;16.85;5.42;;;;;;;20.33;48.61;100622.45;1747808;80;21624;-51
2022/09/09 08:39:19;;;;;;;9.70;5.20;;;;;;;20.31;48.87;100625.64;1745328;80;21000;-51
2022/09/09 08:42:17;;;;;;;11.95;5.37;;;;;;;20.34;48.97;100629.50;1749794;80;21040;-52
2022/09/09 08:45:02;;;;;;;8.75;4.30;;;;;;;20.38;48.98;100627.16;1756236;80;21347;-42
2022/09/09 08:47:46;;;;;;;8.35;4.95;;;;;;;20.47;48.74;100631.33;1742903;80;21103;-43
2022/09/09 08:50:38;;;;;;;9.38;4.83;;;;;;;20.58;48.40;100622.47;1761233;80;21295;-43
2022/09/09 08:53:23;;;;;;;18.07;4.58;;;;;;;20.72;47.76;100632.63;1760831;80;21001;-41
2022/09/09 08:55:58;;;;;;;5.53;4.47;;;;;;;20.83;47.58;100629.11;1743845;80;21366;-42
2022/09/09 08:58:52;;;;;;;9.28;5.80;;;;;;;20.90;46.80;100625.30;1767092;80;21029;-41
2022/09/09 09:01:56;;;;;;;12.10;4.78;;;;;;;20.91;46.73;100622.17;1740408;80;21246;-41
2022/09/09 09:05:00;;;;;;;9.15;4.78;;;;;;;21.03;46.39;100616.39;1759850;80;21441;-51
2022/09/09 09:07:57;;;;;;;15.60;5.67;;;;;;;21.15;45.71;100615.05;1757433;80;21033;-51
2022/09/09 09:10:52;;;;;;;8.15;4.60;;;;;;;21.18;44.63;100625.12;1764278;80;21040;-52
2022/09/09 09:13:55;;;;;;;19.60;5.55;;;;;;;21.18;44.40;100618.94;1771941;80;21068;-41
2022/09/09 09:16:35;;;;;;;10.15;4.83;;;;;;;21.21;44.67;100620.99;1761172;80;21647;-52
2022/09/09 09:19:01;;;;;;;21.25;4.95;;;;;;;21.22;44.11;100617.44;1710472;82;21043;-41
2022/09/09 09:21:43;;;;;;;13.10;5.15;;;;;;;21.19;43.54;100616.67;1704965;83;21051;-42
2022/09/09 09:24:23;;;;;;;17.23;5.37;;;;;;;21.21;44.12;100617.47;1708439;82;20952;-43
2022/09/09 09:26:52;;;;;;;12.98;4.20;;;;;;;21.15;44.08;100620.37;1707382;82;21403;-42
2022/09/09 09:29:21;;;;;;;11.12;4.08;;;;;;;21.12;44.05;100625.83;1703157;82;21020;-51
2022/09/09 09:31:54;;;;;;;11.43;4.60;;;;;;;21.10;43.97;100629.84;1710831;82;21007;-50
2022/09/09 09:34:23;;;;;;;13.22;4.67;;;;;;;21.08;44.07;100630.84;1711062;82;20960;-50
2022/09/09 09:36:57;;;;;;;10.18;5.33;;;;;;;21.06;43.13;100630.05;1704865;82;21484;-51
2022/09/09 09:39:28;;;;;;;15.98;4.45;;;;;;;21.02;43.63;100628.42;1711888;82;21489;-51
2022/09/09 09:41:57;;;;;;;;;;;;;;;20.96;43.90;100626.39;1713318;82;21595;-52
2022/09/09 09:44:32;;;;;;;7.40;4.35;;;;;;;20.97;43.82;100636.56;1705425;82;20456;-55
2022/09/09 09:47:13;;;;;;;10.30;4.92;;;;;;;20.98;43.01;100631.18;1703391;83;21083;-52
2022/09/09 09:49:59;;;;;;;5.92;4.35;;;;;;;20.95;42.84;100627.33;1703696;83;21580;-41
2022/09/09 09:52:32;;;;;;;18.85;4.37;;;;;;;20.96;43.06;100629.52;1678060;84;21016;-52
2022/09/09 09:55:03;;;;;;;15.53;5.00;;;;;;;21.02;43.86;100634.61;1704170;82;20973;-51
2022/09/09 09:57:31;;;;;;;7.47;4.20;;;;;;;21.08;43.13;100632.17;1734291;80;21432;-41
2022/09/09 10:00:20;;;;;;;21.33;4.47;;;;;;;21.12;43.12;100629.34;1753976;80;20960;-52
2022/09/09 10:02:49;;;;;;;15.48;4.75;;;;;;;21.14;43.34;100625.30;1736811;80;21071;-41
2022/09/09 10:05:26;;;;;;;8.95;4.30;;;;;;;21.13;43.13;100621.77;1756044;80;21244;-41
2022/09/09 10:08:13;;;;;;;13.83;5.67;;;;;;;21.12;43.02;100626.69;1757718;79;21398;-42
2022/09/09 10:11:08;;;;;;;11.85;5.20;;;;;;;21.09;43.15;100620.14;1751091;80;20976;-40
2022/09/09 10:14:06;;;;;;;14.70;4.92;;;;;;;21.05;42.92;100617.22;1750407;80;21551;-46
2022/09/09 10:17:01;;;;;;;12.60;5.25;;;;;;;20.97;42.58;100620.14;1750812;80;20957;-52
2022/09/09 10:19:34;;;;;;;13.25;5.05;;;;;;;20.89;42.36;100612.93;1748001;80;21617;-51
2022/09/09 10:22:15;;;;;;;10.48;4.97;;;;;;;20.84;42.48;100617.55;1753989;79;21039;-41
2022/09/09 10:25:05;;;;;;;27.37;5.12;;;;;;;20.81;42.56;100622.09;1747345;80;21555;-51
2022/09/09 10:28:00;;;;;;;10.93;5.10;;;;;;;20.76;42.65;100622.30;1751040;80;21879;-51
2022/09/09 10:31:14;;;;;;;8.48;4.65;;;;;;;20.72;42.59;100625.52;1752363;80;21859;-51
2022/09/09 10:34:02;;;;;;;12.15;4.35;;;;;;;20.64;42.53;100626.27;1747559;80;21087;-52
2022/09/09 10:36:29;;;;;;;11.63;4.95;;;;;;;20.56;42.62;100617.69;1747470;80;21039;-51
2022/09/09 10:39:18;;;;;;;12.58;4.80;;;;;;;20.52;42.62;100620.50;1755309;80;21550;-52
2022/09/09 10:42:02;;;;;;;7.20;4.45;;;;;;;20.47;42.67;100619.36;1751112;80;21052;-54
2022/09/09 10:44:50;;;;;;;8.50;4.60;;;;;;;20.45;42.83;100620.72;1743284;80;20973;-54
2022/09/09 10:47:48;;;;;;;6.05;4.53;;;;;;;20.41;42.98;100612.91;1743842;80;21556;-51
2022/09/09 10:50:38;;;;;;;10.30;5.00;;;;;;;20.35;43.01;100610.44;1704214;82;21048;-52
2022/09/09 10:53:40;;;;;;;10.43;4.80;;;;;;;20.29;43.04;100618.62;1705097;82;21598;-52
2022/09/09 10:56:12;;;;;;;9.08;4.55;;;;;;;20.26;42.81;100620.94;1706006;82;20968;-52
2022/09/09 10:58:52;;;;;;;7.85;4.58;;;;;;;20.25;42.79;100617.02;1712912;82;21607;-52
2022/09/09 11:01:32;;;;;;;8.55;5.15;;;;;;;20.24;42.83;100609.52;1708818;82;20979;-43
2022/09/09 11:04:04;;;;;;;12.23;6.12;;;;;;;20.19;42.99;100614.12;1705640;82;21064;-43
2022/09/09 11:06:42;;;;;;;6.53;4.12;;;;;;;20.18;43.12;100615.91;1706870;82;21459;-43
2022/09/09 11:09:19;;;;;;;7.85;5.05;;;;;;;20.17;43.27;100619.92;1703565;82;21426;-43
2022/09/09 11:11:57;;;;;;;8.10;4.40;;;;;;;20.17;43.08;100622.11;1664901;82;20985;-43
2022/09/09 11:14:44;;;;;;;8.10;4.05;;;;;;;20.17;43.06;100616.80;1700404;82;21400;-43
2022/09/09 11:17:16;;;;;;;9.20;4.47;;;;;;;20.17;42.98;100619.92;1711115;82;21711;-53
2022/09/09 11:19:44;;;;;;;7.33;4.70;;;;;;;20.12;43.23;100619.20;1711708;82;20978;-53
2022/09/09 11:22:34;;;;;;;9.58;5.00;;;;;;;20.09;43.38;100620.66;1736926;80;21500;-53
2022/09/09 11:25:37;;;;;;;6.37;4.60;;;;;;;20.04;43.38;100615.49;1670473;84;21443;-53
2022/09/09 11:28:28;;;;;;;6.57;4.77;;;;;;;19.99;43.70;100617.89;1675817;84;21151;-53
2022/09/09 11:31:22;;;;;;;10.45;4.95;;;;;;;19.96;44.11;100622.00;1621150;87;21092;-54
2022/09/09 11:34:49;;;;;;;8.90;4.92;;;;;;;19.92;43.85;100619.89;1621019;87;21073;-44
2022/09/09 11:37:56;;;;;;;9.88;4.80;;;;;;;19.88;43.92;100608.95;1615471;87;21639;-44
2022/09/09 11:40:26;;;;;;;13.60;4.62;;;;;;;19.92;44.12;100610.14;1619552;88;20989;-43
2022/09/09 11:43:13;;;;;;;21.17;5.83;;;;;;;19.97;43.61;100601.16;1612831;87;21707;-43
2022/09/09 11:45:41;;;;;;;5.90;4.50;;;;;;;19.99;42.85;100594.00;1612429;87;21002;-43
2022/09/09 11:48:25;;;;;;;8.88;3.98;;;;;;;19.98;42.36;100591.80;1609676;87;21151;-53
2022/09/09 11:51:07;;;;;;;9.60;4.70;;;;;;;19.98;42.38;100583.84;1603306;87;21843;-53
2022/09/09 11:53:35;;;;;;;9.98;5.00;;;;;;;20.00;42.26;100587.30;1607607;87;21150;-43
2022/09/09 11:56:05;;;;;;;8.88;4.40;;;;;;;20.02;42.01;100588.13;1611634;88;21029;-43
2022/09/09 11:58:39;;;;;;;17.42;4.72;;;;;;;20.05;41.40;100584.03;1613065;87;21101;-43
2022/09/09 12:01:36;;;;;;;13.50;5.20;;;;;;;20.07;41.52;100579.55;1661071;83;21007;-53
2022/09/09 12:04:25;;;;;;;7.47;4.12;;;;;;;20.10;41.39;100580.75;1700465;83;21062;-43
2022/09/09 12:07:02;;;;;;;9.58;4.65;;;;;;;20.15;40.87;100580.14;1700931;84;21003;-43
2022/09/09 12:09:44;;;;;;;8.58;4.47;;;;;;;20.17;40.66;100580.94;1764934;80;20934;-53
2022/09/09 12:12:16;;;;;;;6.15;4.50;;;;;;;20.18;40.50;100577.86;1762102;80;21662;-53
2022/09/09 12:14:56;;;;;;;9.93;4.83;;;;;;;20.20;40.38;100581.31;1761866;80;20958;-53
2022/09/09 12:17:24;;;;;;;9.28;4.67;;;;;;;20.18;40.49;100588.02;1770496;80;21077;-51
2022/09/09 12:20:17;;;;;;;8.03;4.17;;;;;;;20.15;40.68;100581.93;1765628;80;21455;-43
2022/09/09 12:23:24;;;;;;;6.15;4.22;;;;;;;20.13;40.85;100584.65;1768800;80;21034;-42
2022/09/09 12:26:16;;;;;;;6.33;4.75;;;;;;;20.10;40.56;100579.89;1772572;80;20990;-43
2022/09/09 12:29:19;;;;;;;10.60;4.72;;;;;;;20.06;40.49;100576.49;1764657;79;21100;-43
2022/09/09 12:32:03;;;;;;;5.30;4.10;;;;;;;20.04;40.58;100582.77;1776932;78;21004;-53
2022/09/09 12:34:54;;;;;;;19.15;5.25;;;;;;;20.01;40.69;100581.56;1794419;79;21552;-52
2022/09/09 12:37:43;;;;;;;15.40;4.83;;;;;;;19.97;40.86;100581.24;1790635;79;21025;-54
2022/09/09 12:40:23;;;;;;;9.15;5.00;;;;;;;19.95;41.12;100576.45;1797472;80;20977;-43
2022/09/09 12:42:50;;;;;;;6.12;4.33;;;;;;;19.92;41.32;100578.28;1802182;78;21037;-43
2022/09/09 12:45:20;;;;;;;7.08;4.40;;;;;;;19.88;41.04;100572.66;1809605;79;21560;-52
2022/09/09 12:47:51;;;;;;;8.65;4.15;;;;;;;19.84;41.11;100580.34;1809113;78;21029;-43
2022/09/09 12:50:27;;;;;;;7.90;4.80;;;;;;;19.80;41.37;100584.00;1809439;79;20958;-54
2022/09/09 12:52:59;;;;;;;5.53;4.53;;;;;;;19.76;41.61;100586.34;1809552;78;21032;-42
2022/09/09 12:55:29;;;;;;;5.92;4.45;;;;;;;19.71;41.69;100594.05;1810313;79;20977;-43
2022/09/09 12:57:57;;;;;;;9.40;4.70;;;;;;;19.67;41.61;100595.95;1779041;79;21040;-44
2022/09/09 13:00:24;;;;;;;9.03;4.60;;;;;;;19.64;41.66;100594.25;1787829;79;20953;-52
2022/09/09 13:02:56;;;;;;;9.65;4.33;;;;;;;19.63;41.84;100600.94;1809371;78;21588;-42
